Asahikawa, Japan
Current Conditions -  °F | °C
As of 8:00 PM on Saturday 20 Dec 2014 (Local Time) from RJEC Reporting Station
Broken Clouds Broken Clouds  
Wind Chill: 30°   Ceiling: 12000
Heat Index: 37°   Visibility: 6mi
Dew Point: 28°   Wind: 10mph
Humidity: 70%   Direction: 170°S
Pressure: 29.59"   Gusts: NA
Location:  43.77°N, 142.36°E
Report Text: RJEC 201100Z 17009KT 9999 FEW020 SCT100 BKN120 03/M02 Q1002
Loading
Personal Weather Stations






























Interactive Weather Map New forecast layout! Learn more

10-Day Weather Forecast

Advertisements
Track Severe Weather on mobile